Aeroporto :
LOGIN :

Iscrizione | Disclaimer

   EN    FR    IT 

 










Sommario :    VFR   VFR Marginale   IFR   IFR Intensivo   IFR Molto Intensivo
Visibilità : 
Base nubi : 
>= 8 km
>= 3000ft
5 / 8 km
1000 / 3000 ft
1500m / 5 km
500 / 1000 ft
800 / 1500m
200 / 500 ft
< 800m
< 200 ft
Simboli :   Temporali  Nebbia  Neve Forte  Precipitazioni Forti  Vento > 20 kt
SIGMETs :   Varie  Temporali  Ghiacco  Turbolenza  Onda orograficha  Ceneri Vulcaniche






- Altitudine del aeroporto : 587 ft
- Codice IATA : XCR


LFOK - Chalons Vatry

ULTIMO METAR :
  • 181700Z AUTO 10005KT 010V150 9999 3300 +RA FEW013/// SCT023/// BKN036/// ///TCU 04/03 Q1029 BECMG NSW SCT015

METARs OBSOLETI :
  • 181630Z AUTO 12001KT 9999 BKN030/// BKN052/// ///TCU 05/04 Q1028 BECMG SCT015
  • 181600Z AUTO 22003KT 9999 FEW033 BKN054 05/04 Q1028 NOSIG
  • 181530Z AUTO 23003KT 9999 FEW038 OVC049 06/04 Q1028 NOSIG
  • 181500Z AUTO 24003KT 200V280 9999 BKN049 OVC058 06/04 Q1027 NOSIG
  • 181430Z AUTO 22004KT 180V240 9999 FEW012 BKN056 06/04 Q1027 NOSIG

TAF TAF LFOK
Valido dal 18 a 12 ore il 19 a 12 ore UTC


181100Z 1812/1912 24010KT 9999 BKN007 OVC017
BECMG 1814/1817 VRB02KT SCT015
BECMG 1907/1910 36010KT



MetMap, La meteo Aeronautica in un colpo d'occhio ! - Copyright ORBIFLY Dicembre 2007 - Disclaimer

ORBIFLY MET'MAP TEAM :

Programmazione e sviluppo : Alexandra Zaïnal
Concezione : Baudouin d'Aumeries
Aiuto per la programmazione : Marc-Olivier Méhu
Supporto tecnico e logistico : Manuel Goepfert
Aiuto per la traduzione : Arnaldo La Scala

Contatto : metmap@orbifly.com




FONTI E CREDITI :

   NOAA